sensor_id;sensor_type;location;lat;lon;timestamp;pressure;altitude;pressure_sealevel;temperature;humidity
47082;BME280;33066;49.296;14.470;2024-03-02T00:00:40;95973.08;;;12.08;43.48
47082;BME280;33066;49.296;14.470;2024-03-02T00:03:07;95971.82;;;11.98;43.64
47082;BME280;33066;49.296;14.470;2024-03-02T00:05:31;95972.10;;;12.46;43.70
47082;BME280;33066;49.296;14.470;2024-03-02T00:07:57;95974.43;;;12.16;43.81
47082;BME280;33066;49.296;14.470;2024-03-02T00:10:27;95978.16;;;12.19;43.71
47082;BME280;33066;49.296;14.470;2024-03-02T00:12:48;95978.08;;;12.26;43.56
47082;BME280;33066;49.296;14.470;2024-03-02T00:15:30;95980.57;;;12.54;43.45
47082;BME280;33066;49.296;14.470;2024-03-02T00:17:38;95984.69;;;12.51;43.28
47082;BME280;33066;49.296;14.470;2024-03-02T00:20:04;95986.73;;;12.56;43.14
47082;BME280;33066;49.296;14.470;2024-03-02T00:22:29;95986.73;;;12.68;43.05
47082;BME280;33066;49.296;14.470;2024-03-02T00:24:54;95986.53;;;12.70;42.89
47082;BME280;33066;49.296;14.470;2024-03-02T00:27:19;95985.38;;;12.46;42.84
47082;BME280;33066;49.296;14.470;2024-03-02T00:29:45;95982.10;;;12.46;42.80
47082;BME280;33066;49.296;14.470;2024-03-02T00:32:13;95985.57;;;12.38;42.56
47082;BME280;33066;49.296;14.470;2024-03-02T00:34:36;95985.67;;;12.74;42.43
47082;BME280;33066;49.296;14.470;2024-03-02T00:37:02;95988.04;;;12.81;42.16
47082;BME280;33066;49.296;14.470;2024-03-02T00:39:27;95989.89;;;12.84;42.09
47082;BME280;33066;49.296;14.470;2024-03-02T00:41:53;95990.73;;;12.67;41.95
47082;BME280;33066;49.296;14.470;2024-03-02T00:44:21;95991.51;;;12.61;41.85
47082;BME280;33066;49.296;14.470;2024-03-02T00:46:44;95992.54;;;12.59;41.93
47082;BME280;33066;49.296;14.470;2024-03-02T00:49:17;95994.36;;;12.60;41.89
47082;BME280;33066;49.296;14.470;2024-03-02T00:51:35;95995.33;;;12.69;41.87
47082;BME280;33066;49.296;14.470;2024-03-02T00:54:02;95995.21;;;12.86;41.68
47082;BME280;33066;49.296;14.470;2024-03-02T00:56:26;95993.73;;;12.88;41.69
47082;BME280;33066;49.296;14.470;2024-03-02T00:58:51;95991.46;;;12.99;41.39
47082;BME280;33066;49.296;14.470;2024-03-02T01:01:16;95991.20;;;13.00;41.25
47082;BME280;33066;49.296;14.470;2024-03-02T01:03:42;95988.95;;;12.99;41.26
47082;BME280;33066;49.296;14.470;2024-03-02T01:06:07;95989.36;;;12.97;41.31
47082;BME280;33066;49.296;14.470;2024-03-02T01:08:32;95982.13;;;12.94;41.20
47082;BME280;33066;49.296;14.470;2024-03-02T01:10:58;95980.39;;;12.92;41.07
47082;BME280;33066;49.296;14.470;2024-03-02T01:13:23;95982.88;;;12.86;40.92
47082;BME280;33066;49.296;14.470;2024-03-02T01:15:49;95980.11;;;12.76;40.86
47082;BME280;33066;49.296;14.470;2024-03-02T01:18:14;95978.64;;;12.98;40.93
47082;BME280;33066;49.296;14.470;2024-03-02T01:20:40;95979.81;;;12.77;40.81
47082;BME280;33066;49.296;14.470;2024-03-02T01:23:06;95980.36;;;12.67;40.81
47082;BME280;33066;49.296;14.470;2024-03-02T01:25:32;95982.34;;;12.61;40.77
47082;BME280;33066;49.296;14.470;2024-03-02T01:27:57;95984.51;;;12.73;40.81
47082;BME280;33066;49.296;14.470;2024-03-02T01:30:22;95987.42;;;12.94;40.92
47082;BME280;33066;49.296;14.470;2024-03-02T01:32:48;95986.86;;;12.56;41.03
47082;BME280;33066;49.296;14.470;2024-03-02T01:35:14;95988.14;;;12.27;41.08
47082;BME280;33066;49.296;14.470;2024-03-02T01:37:39;95988.14;;;12.46;40.99
47082;BME280;33066;49.296;14.470;2024-03-02T01:40:05;95984.60;;;12.71;40.96
47082;BME280;33066;49.296;14.470;2024-03-02T01:42:29;95983.74;;;12.14;40.91
47082;BME280;33066;49.296;14.470;2024-03-02T01:44:55;95982.36;;;12.49;41.05
47082;BME280;33066;49.296;14.470;2024-03-02T01:47:20;95981.30;;;12.51;41.21
47082;BME280;33066;49.296;14.470;2024-03-02T01:49:45;95981.82;;;12.15;41.32
47082;BME280;33066;49.296;14.470;2024-03-02T01:52:10;95986.13;;;12.06;41.53
47082;BME280;33066;49.296;14.470;2024-03-02T01:54:36;95981.38;;;12.30;41.57
47082;BME280;33066;49.296;14.470;2024-03-02T01:57:01;95979.29;;;12.15;41.51
47082;BME280;33066;49.296;14.470;2024-03-02T01:59:26;95976.89;;;12.43;41.43
47082;BME280;33066;49.296;14.470;2024-03-02T02:01:51;95978.98;;;12.24;41.30
47082;BME280;33066;49.296;14.470;2024-03-02T02:04:17;95978.13;;;12.46;41.30
47082;BME280;33066;49.296;14.470;2024-03-02T02:06:44;95979.42;;;12.49;41.25
47082;BME280;33066;49.296;14.470;2024-03-02T02:09:08;95979.15;;;12.05;40.96
47082;BME280;33066;49.296;14.470;2024-03-02T02:11:33;95976.31;;;12.18;40.78
47082;BME280;33066;49.296;14.470;2024-03-02T02:13:59;95976.58;;;12.22;41.24
47082;BME280;33066;49.296;14.470;2024-03-02T02:16:24;95976.44;;;12.08;41.82
47082;BME280;33066;49.296;14.470;2024-03-02T02:18:49;95978.70;;;11.99;42.00
47082;BME280;33066;49.296;14.470;2024-03-02T02:21:14;95978.01;;;11.81;42.36
47082;BME280;33066;49.296;14.470;2024-03-02T02:23:40;95975.79;;;11.87;42.21
47082;BME280;33066;49.296;14.470;2024-03-02T02:26:05;95974.73;;;11.93;42.19
47082;BME280;33066;49.296;14.470;2024-03-02T02:28:30;95969.43;;;11.98;42.10
47082;BME280;33066;49.296;14.470;2024-03-02T02:30:57;95968.16;;;10.64;42.07
47082;BME280;33066;49.296;14.470;2024-03-02T02:33:21;95963.12;;;12.41;40.69
47082;BME280;33066;49.296;14.470;2024-03-02T02:35:46;95963.06;;;12.46;40.66
47082;BME280;33066;49.296;14.470;2024-03-02T02:38:12;95962.50;;;12.64;40.82
47082;BME280;33066;49.296;14.470;2024-03-02T02:40:37;95959.24;;;12.44;40.99
47082;BME280;33066;49.296;14.470;2024-03-02T02:43:03;95963.89;;;12.11;41.10
47082;BME280;33066;49.296;14.470;2024-03-02T02:45:29;95965.77;;;12.26;41.18
47082;BME280;33066;49.296;14.470;2024-03-02T02:47:54;95964.34;;;11.96;41.26
47082;BME280;33066;49.296;14.470;2024-03-02T02:50:19;95963.26;;;12.22;41.29
47082;BME280;33066;49.296;14.470;2024-03-02T02:52:44;95964.00;;;12.25;41.22
47082;BME280;33066;49.296;14.470;2024-03-02T02:55:11;95959.57;;;12.29;41.17
47082;BME280;33066;49.296;14.470;2024-03-02T02:57:37;95962.86;;;12.08;41.14
47082;BME280;33066;49.296;14.470;2024-03-02T03:00:02;95964.35;;;12.34;41.21
47082;BME280;33066;49.296;14.470;2024-03-02T03:02:28;95966.43;;;12.28;41.06
47082;BME280;33066;49.296;14.470;2024-03-02T03:04:52;95961.86;;;12.19;40.71
47082;BME280;33066;49.296;14.470;2024-03-02T03:07:18;95963.29;;;12.03;40.71
47082;BME280;33066;49.296;14.470;2024-03-02T03:09:43;95962.75;;;11.94;40.79
47082;BME280;33066;49.296;14.470;2024-03-02T03:12:09;95963.92;;;11.83;40.58
47082;BME280;33066;49.296;14.470;2024-03-02T03:14:34;95964.54;;;11.70;40.49
47082;BME280;33066;49.296;14.470;2024-03-02T03:16:59;95960.96;;;11.84;40.50
47082;BME280;33066;49.296;14.470;2024-03-02T03:19:25;95961.80;;;11.55;40.77
47082;BME280;33066;49.296;14.470;2024-03-02T03:21:50;95967.05;;;11.64;40.89
47082;BME280;33066;49.296;14.470;2024-03-02T03:24:15;95973.89;;;11.69;40.92
47082;BME280;33066;49.296;14.470;2024-03-02T03:26:41;95974.73;;;11.77;40.82
47082;BME280;33066;49.296;14.470;2024-03-02T03:29:07;95970.99;;;11.85;40.72
47082;BME280;33066;49.296;14.470;2024-03-02T03:31:32;95973.24;;;11.85;40.58
47082;BME280;33066;49.296;14.470;2024-03-02T03:33:57;95971.94;;;12.05;40.34
47082;BME280;33066;49.296;14.470;2024-03-02T03:36:22;95975.87;;;11.66;40.25
47082;BME280;33066;49.296;14.470;2024-03-02T03:38:48;95973.58;;;11.85;40.51
47082;BME280;33066;49.296;14.470;2024-03-02T03:41:13;95975.04;;;11.51;40.76
47082;BME280;33066;49.296;14.470;2024-03-02T03:43:38;95976.52;;;11.60;40.90
47082;BME280;33066;49.296;14.470;2024-03-02T03:46:03;95979.37;;;11.70;40.79
47082;BME280;33066;49.296;14.470;2024-03-02T03:48:28;95979.36;;;11.73;40.77
47082;BME280;33066;49.296;14.470;2024-03-02T03:50:54;95976.76;;;11.71;40.53
47082;BME280;33066;49.296;14.470;2024-03-02T03:53:20;95974.37;;;11.62;40.34
47082;BME280;33066;49.296;14.470;2024-03-02T03:55:46;95971.75;;;11.56;40.28
47082;BME280;33066;49.296;14.470;2024-03-02T03:58:11;95969.90;;;11.45;40.30
47082;BME280;33066;49.296;14.470;2024-03-02T04:00:36;95969.13;;;11.89;40.24
47082;BME280;33066;49.296;14.470;2024-03-02T04:03:02;95973.76;;;11.55;40.00
47082;BME280;33066;49.296;14.470;2024-03-02T04:05:27;95978.54;;;11.38;39.59
47082;BME280;33066;49.296;14.470;2024-03-02T04:07:53;95980.39;;;11.47;39.48
47082;BME280;33066;49.296;14.470;2024-03-02T04:13:00;95975.99;;;11.23;39.11
47082;BME280;33066;49.296;14.470;2024-03-02T04:15:25;95973.50;;;11.32;39.40
47082;BME280;33066;49.296;14.470;2024-03-02T04:17:50;95972.91;;;11.47;40.01
47082;BME280;33066;49.296;14.470;2024-03-02T04:20:15;95973.72;;;10.98;40.25
47082;BME280;33066;49.296;14.470;2024-03-02T04:22:41;95973.44;;;11.16;40.12
47082;BME280;33066;49.296;14.470;2024-03-02T04:25:08;95979.09;;;11.44;39.78
47082;BME280;33066;49.296;14.470;2024-03-02T04:27:32;95983.93;;;10.91;39.62
47082;BME280;33066;49.296;14.470;2024-03-02T04:29:58;95986.67;;;11.27;39.65
47082;BME280;33066;49.296;14.470;2024-03-02T04:32:23;95985.15;;;10.94;39.50
47082;BME280;33066;49.296;14.470;2024-03-02T04:34:48;95984.35;;;10.90;39.35
47082;BME280;33066;49.296;14.470;2024-03-02T04:37:14;95979.64;;;10.87;39.28
47082;BME280;33066;49.296;14.470;2024-03-02T04:39:39;95979.84;;;10.88;39.74
47082;BME280;33066;49.296;14.470;2024-03-02T04:42:04;95982.60;;;10.96;39.95
47082;BME280;33066;49.296;14.470;2024-03-02T04:44:29;95986.64;;;11.03;39.91
47082;BME280;33066;49.296;14.470;2024-03-02T04:46:55;95987.93;;;11.06;39.25
47082;BME280;33066;49.296;14.470;2024-03-02T04:49:20;95986.42;;;11.20;39.26
47082;BME280;33066;49.296;14.470;2024-03-02T04:51:45;95991.43;;;11.25;39.69
47082;BME280;33066;49.296;14.470;2024-03-02T04:54:11;95994.86;;;11.27;39.59
47082;BME280;33066;49.296;14.470;2024-03-02T04:56:36;95993.82;;;11.33;39.68
47082;BME280;33066;49.296;14.470;2024-03-02T04:59:02;95996.14;;;11.17;39.70
47082;BME280;33066;49.296;14.470;2024-03-02T05:01:28;95995.18;;;11.30;39.51
47082;BME280;33066;49.296;14.470;2024-03-02T05:03:53;95995.26;;;11.40;39.47
47082;BME280;33066;49.296;14.470;2024-03-02T05:06:18;95996.64;;;11.32;39.10
47082;BME280;33066;49.296;14.470;2024-03-02T05:08:44;95996.96;;;11.29;39.21
47082;BME280;33066;49.296;14.470;2024-03-02T05:11:09;95999.25;;;11.32;38.76
47082;BME280;33066;49.296;14.470;2024-03-02T05:13:36;96005.46;;;10.95;38.32
47082;BME280;33066;49.296;14.470;2024-03-02T05:16:00;96012.00;;;11.08;38.13
47082;BME280;33066;49.296;14.470;2024-03-02T05:18:25;96012.31;;;10.97;38.08
47082;BME280;33066;49.296;14.470;2024-03-02T05:20:51;96013.12;;;10.84;38.09
47082;BME280;33066;49.296;14.470;2024-03-02T05:23:16;96010.81;;;10.77;38.36
47082;BME280;33066;49.296;14.470;2024-03-02T05:25:42;96009.83;;;10.77;38.70
47082;BME280;33066;49.296;14.470;2024-03-02T05:28:07;96009.87;;;10.81;38.72
47082;BME280;33066;49.296;14.470;2024-03-02T05:30:32;96012.07;;;10.79;38.93
47082;BME280;33066;49.296;14.470;2024-03-02T05:32:57;96018.08;;;10.75;39.12
47082;BME280;33066;49.296;14.470;2024-03-02T05:35:23;96018.78;;;10.75;38.53
47082;BME280;33066;49.296;14.470;2024-03-02T05:37:48;96021.26;;;10.60;38.43
47082;BME280;33066;49.296;14.470;2024-03-02T05:40:14;96025.34;;;10.47;38.72
47082;BME280;33066;49.296;14.470;2024-03-02T05:42:39;96029.57;;;10.43;39.04
47082;BME280;33066;49.296;14.470;2024-03-02T05:45:06;96031.60;;;10.37;39.57
47082;BME280;33066;49.296;14.470;2024-03-02T05:47:30;96034.94;;;10.36;39.59
47082;BME280;33066;49.296;14.470;2024-03-02T05:49:55;96041.23;;;10.39;39.38
47082;BME280;33066;49.296;14.470;2024-03-02T05:52:21;96045.18;;;10.44;39.20
47082;BME280;33066;49.296;14.470;2024-03-02T05:54:46;96048.68;;;10.41;38.89
47082;BME280;33066;49.296;14.470;2024-03-02T05:57:11;96052.84;;;10.32;39.29
47082;BME280;33066;49.296;14.470;2024-03-02T05:59:37;96051.32;;;10.44;39.25
47082;BME280;33066;49.296;14.470;2024-03-02T06:02:02;96057.03;;;10.37;39.51
47082;BME280;33066;49.296;14.470;2024-03-02T06:04:28;96064.22;;;10.35;39.45
47082;BME280;33066;49.296;14.470;2024-03-02T06:06:53;96061.20;;;10.29;39.42
47082;BME280;33066;49.296;14.470;2024-03-02T06:09:18;96055.24;;;10.41;39.30
47082;BME280;33066;49.296;14.470;2024-03-02T06:11:44;96059.70;;;10.52;39.38
47082;BME280;33066;49.296;14.470;2024-03-02T06:14:10;96067.57;;;10.29;39.11
47082;BME280;33066;49.296;14.470;2024-03-02T06:16:36;96068.09;;;10.56;38.54
47082;BME280;33066;49.296;14.470;2024-03-02T06:19:01;96068.44;;;10.59;38.60
47082;BME280;33066;49.296;14.470;2024-03-02T06:21:27;96070.49;;;10.60;38.22
47082;BME280;33066;49.296;14.470;2024-03-02T06:23:52;96074.12;;;10.46;38.22
47082;BME280;33066;49.296;14.470;2024-03-02T06:26:19;96074.53;;;9.36;38.20
47082;BME280;33066;49.296;14.470;2024-03-02T06:28:44;96075.12;;;10.59;38.18
47082;BME280;33066;49.296;14.470;2024-03-02T06:31:09;96077.45;;;10.65;38.63
47082;BME280;33066;49.296;14.470;2024-03-02T06:33:35;96081.05;;;10.42;38.61
47082;BME280;33066;49.296;14.470;2024-03-02T06:36:00;96082.81;;;10.40;38.30
47082;BME280;33066;49.296;14.470;2024-03-02T06:38:25;96082.04;;;10.02;38.64
47082;BME280;33066;49.296;14.470;2024-03-02T06:40:51;96087.11;;;10.18;38.75
47082;BME280;33066;49.296;14.470;2024-03-02T06:43:16;96092.38;;;10.18;38.85
47082;BME280;33066;49.296;14.470;2024-03-02T06:45:42;96092.39;;;10.00;38.67
47082;BME280;33066;49.296;14.470;2024-03-02T06:48:08;96093.88;;;9.93;38.78
47082;BME280;33066;49.296;14.470;2024-03-02T06:50:33;96097.40;;;10.02;38.73
47082;BME280;33066;49.296;14.470;2024-03-02T06:52:59;96096.90;;;10.58;38.57
47082;BME280;33066;49.296;14.470;2024-03-02T06:55:24;96102.40;;;10.46;38.69
47082;BME280;33066;49.296;14.470;2024-03-02T06:57:50;96109.37;;;10.44;38.91
47082;BME280;33066;49.296;14.470;2024-03-02T07:00:17;96116.13;;;10.57;38.90
47082;BME280;33066;49.296;14.470;2024-03-02T07:02:42;96119.69;;;10.65;38.89
47082;BME280;33066;49.296;14.470;2024-03-02T07:05:08;96119.61;;;10.69;39.07
47082;BME280;33066;49.296;14.470;2024-03-02T07:07:33;96122.79;;;10.59;39.12
47082;BME280;33066;49.296;14.470;2024-03-02T07:09:59;96117.99;;;10.76;39.35
47082;BME280;33066;49.296;14.470;2024-03-02T07:12:24;96122.00;;;10.79;39.21
47082;BME280;33066;49.296;14.470;2024-03-02T07:14:50;96124.46;;;10.82;39.22
47082;BME280;33066;49.296;14.470;2024-03-02T07:17:15;96127.30;;;10.72;39.44
47082;BME280;33066;49.296;14.470;2024-03-02T07:19:40;96127.30;;;11.06;39.48
47082;BME280;33066;49.296;14.470;2024-03-02T07:22:08;96129.88;;;11.12;39.37
47082;BME280;33066;49.296;14.470;2024-03-02T07:24:31;96128.71;;;11.28;39.32
47082;BME280;33066;49.296;14.470;2024-03-02T07:26:56;96131.01;;;11.17;39.19
47082;BME280;33066;49.296;14.470;2024-03-02T07:29:22;96132.97;;;11.59;39.16
47082;BME280;33066;49.296;14.470;2024-03-02T07:31:47;96133.24;;;11.71;39.29
47082;BME280;33066;49.296;14.470;2024-03-02T07:34:13;96125.98;;;11.69;39.19
47082;BME280;33066;49.296;14.470;2024-03-02T07:36:38;96121.09;;;11.62;39.14
47082;BME280;33066;49.296;14.470;2024-03-02T07:39:04;96119.09;;;11.71;38.98
47082;BME280;33066;49.296;14.470;2024-03-02T07:41:30;96114.91;;;11.73;39.26
47082;BME280;33066;49.296;14.470;2024-03-02T07:43:56;96117.66;;;11.88;39.20
47082;BME280;33066;49.296;14.470;2024-03-02T07:46:21;96121.66;;;11.98;39.15
47082;BME280;33066;49.296;14.470;2024-03-02T07:48:46;96122.66;;;12.18;39.12
47082;BME280;33066;49.296;14.470;2024-03-02T07:51:11;96117.44;;;11.96;39.22
47082;BME280;33066;49.296;14.470;2024-03-02T07:53:37;96116.13;;;12.25;39.31
47082;BME280;33066;49.296;14.470;2024-03-02T07:56:02;96120.02;;;12.38;39.39
47082;BME280;33066;49.296;14.470;2024-03-02T07:58:27;96121.75;;;12.64;39.54
47082;BME280;33066;49.296;14.470;2024-03-02T08:00:53;96124.31;;;12.78;39.31
47082;BME280;33066;49.296;14.470;2024-03-02T08:03:18;96124.92;;;12.37;39.08
47082;BME280;33066;49.296;14.470;2024-03-02T08:05:44;96127.99;;;12.38;39.20
47082;BME280;33066;49.296;14.470;2024-03-02T08:08:10;96129.38;;;12.54;39.37
47082;BME280;33066;49.296;14.470;2024-03-02T08:10:35;96131.17;;;12.78;39.23
47082;BME280;33066;49.296;14.470;2024-03-02T08:13:01;96130.11;;;13.18;39.22
47082;BME280;33066;49.296;14.470;2024-03-02T08:15:27;96131.88;;;13.02;39.18
47082;BME280;33066;49.296;14.470;2024-03-02T08:17:52;96134.17;;;12.92;39.23
47082;BME280;33066;49.296;14.470;2024-03-02T08:20:17;96131.22;;;13.39;39.08
47082;BME280;33066;49.296;14.470;2024-03-02T08:22:42;96130.08;;;13.30;39.13
47082;BME280;33066;49.296;14.470;2024-03-02T08:25:08;96130.39;;;13.66;39.17
47082;BME280;33066;49.296;14.470;2024-03-02T08:27:33;96128.00;;;13.55;38.94
47082;BME280;33066;49.296;14.470;2024-03-02T08:29:59;96126.52;;;13.63;38.97
47082;BME280;33066;49.296;14.470;2024-03-02T08:32:24;96126.74;;;13.67;38.94
47082;BME280;33066;49.296;14.470;2024-03-02T08:34:50;96123.38;;;13.65;39.17
47082;BME280;33066;49.296;14.470;2024-03-02T08:37:15;96121.92;;;13.76;38.94
47082;BME280;33066;49.296;14.470;2024-03-02T08:39:41;96123.46;;;13.69;39.22
47082;BME280;33066;49.296;14.470;2024-03-02T08:42:06;96122.23;;;13.65;39.12
47082;BME280;33066;49.296;14.470;2024-03-02T08:44:31;96123.43;;;13.69;39.15
47082;BME280;33066;49.296;14.470;2024-03-02T08:46:57;96123.05;;;13.74;38.88
47082;BME280;33066;49.296;14.470;2024-03-02T08:49:22;96120.50;;;13.75;38.95
47082;BME280;33066;49.296;14.470;2024-03-02T08:51:48;96116.84;;;13.84;38.89
47082;BME280;33066;49.296;14.470;2024-03-02T08:54:14;96118.42;;;13.59;38.81
47082;BME280;33066;49.296;14.470;2024-03-02T08:56:38;96119.84;;;13.68;39.09
47082;BME280;33066;49.296;14.470;2024-03-02T08:59:04;96121.95;;;13.91;39.14
47082;BME280;33066;49.296;14.470;2024-03-02T09:01:29;96121.82;;;14.23;39.06
47082;BME280;33066;49.296;14.470;2024-03-02T09:03:54;96122.74;;;14.08;38.86
47082;BME280;33066;49.296;14.470;2024-03-02T09:06:20;96120.09;;;14.18;38.71
47082;BME280;33066;49.296;14.470;2024-03-02T09:08:46;96124.77;;;14.42;38.37
47082;BME280;33066;49.296;14.470;2024-03-02T09:11:11;96126.41;;;14.19;38.17
47082;BME280;33066;49.296;14.470;2024-03-02T09:13:37;96126.58;;;14.23;38.33
47082;BME280;33066;49.296;14.470;2024-03-02T09:16:02;96127.65;;;14.24;38.33
47082;BME280;33066;49.296;14.470;2024-03-02T09:18:27;96129.97;;;14.11;38.25
47082;BME280;33066;49.296;14.470;2024-03-02T09:20:53;96129.61;;;14.15;38.56
47082;BME280;33066;49.296;14.470;2024-03-02T09:23:19;96128.34;;;14.27;38.75
47082;BME280;33066;49.296;14.470;2024-03-02T09:25:45;96127.39;;;14.46;38.84
47082;BME280;33066;49.296;14.470;2024-03-02T09:28:11;96128.41;;;14.67;38.71
47082;BME280;33066;49.296;14.470;2024-03-02T09:30:35;96139.32;;;14.52;38.48
47082;BME280;33066;49.296;14.470;2024-03-02T09:33:00;96142.97;;;14.67;37.99
47082;BME280;33066;49.296;14.470;2024-03-02T09:35:26;96146.06;;;14.32;38.68
47082;BME280;33066;49.296;14.470;2024-03-02T09:37:51;96146.51;;;14.50;38.84
47082;BME280;33066;49.296;14.470;2024-03-02T09:40:16;96150.37;;;14.12;38.81
47082;BME280;33066;49.296;14.470;2024-03-02T09:42:42;96154.66;;;14.13;38.75
47082;BME280;33066;49.296;14.470;2024-03-02T09:45:08;96156.69;;;13.89;39.11
47082;BME280;33066;49.296;14.470;2024-03-02T09:47:33;96151.48;;;14.01;39.20
47082;BME280;33066;49.296;14.470;2024-03-02T09:49:58;96152.87;;;14.32;38.99
47082;BME280;33066;49.296;14.470;2024-03-02T09:52:23;96151.23;;;14.55;38.60
47082;BME280;33066;49.296;14.470;2024-03-02T09:54:49;96146.13;;;14.58;38.58
47082;BME280;33066;49.296;14.470;2024-03-02T09:57:14;96145.42;;;14.37;38.79
47082;BME280;33066;49.296;14.470;2024-03-02T09:59:40;96138.83;;;14.23;38.92
47082;BME280;33066;49.296;14.470;2024-03-02T10:02:06;96134.74;;;14.28;38.76
47082;BME280;33066;49.296;14.470;2024-03-02T10:04:31;96133.89;;;14.36;38.83
47082;BME280;33066;49.296;14.470;2024-03-02T10:07:11;96131.54;;;14.40;38.60
47082;BME280;33066;49.296;14.470;2024-03-02T10:09:27;96127.14;;;14.33;38.79
47082;BME280;33066;49.296;14.470;2024-03-02T10:11:47;96123.10;;;14.48;38.63
47082;BME280;33066;49.296;14.470;2024-03-02T10:14:13;96124.09;;;14.79;38.50
47082;BME280;33066;49.296;14.470;2024-03-02T10:16:39;96120.57;;;14.94;38.59
47082;BME280;33066;49.296;14.470;2024-03-02T10:19:17;96121.28;;;14.38;38.45
47082;BME280;33066;49.296;14.470;2024-03-02T10:21:29;96126.33;;;14.87;38.30
47082;BME280;33066;49.296;14.470;2024-03-02T10:26:20;96130.74;;;14.27;38.87
47082;BME280;33066;49.296;14.470;2024-03-02T10:28:46;96130.96;;;14.26;39.05
47082;BME280;33066;49.296;14.470;2024-03-02T10:31:10;96131.24;;;14.32;38.85
47082;BME280;33066;49.296;14.470;2024-03-02T10:33:36;96124.45;;;14.31;38.93
47082;BME280;33066;49.296;14.470;2024-03-02T10:36:02;96119.36;;;14.42;38.86
47082;BME280;33066;49.296;14.470;2024-03-02T10:38:26;96119.92;;;14.53;38.68
47082;BME280;33066;49.296;14.470;2024-03-02T10:40:52;96119.27;;;14.43;38.48
47082;BME280;33066;49.296;14.470;2024-03-02T10:43:17;96118.19;;;14.48;38.43
47082;BME280;33066;49.296;14.470;2024-03-02T10:45:42;96117.93;;;14.94;38.29
47082;BME280;33066;49.296;14.470;2024-03-02T10:48:08;96119.38;;;14.53;38.35
47082;BME280;33066;49.296;14.470;2024-03-02T10:50:33;96117.71;;;14.87;38.23
47082;BME280;33066;49.296;14.470;2024-03-02T10:52:58;96115.84;;;15.03;38.15
47082;BME280;33066;49.296;14.470;2024-03-02T10:55:24;96114.27;;;14.94;37.96
47082;BME280;33066;49.296;14.470;2024-03-02T10:57:52;96105.58;;;15.15;37.61
47082;BME280;33066;49.296;14.470;2024-03-02T11:00:15;96103.39;;;15.46;37.44
47082;BME280;33066;49.296;14.470;2024-03-02T11:02:45;96103.30;;;15.66;37.27
47082;BME280;33066;49.296;14.470;2024-03-02T11:05:07;96098.77;;;15.71;36.80
47082;BME280;33066;49.296;14.470;2024-03-02T11:07:32;96095.95;;;15.60;36.80
47082;BME280;33066;49.296;14.470;2024-03-02T11:10:00;96095.57;;;15.80;36.78
47082;BME280;33066;49.296;14.470;2024-03-02T11:12:27;96089.69;;;16.12;36.47
47082;BME280;33066;49.296;14.470;2024-03-02T11:14:47;96084.78;;;16.66;35.89
47082;BME280;33066;49.296;14.470;2024-03-02T11:17:14;96084.75;;;17.02;34.98
47082;BME280;33066;49.296;14.470;2024-03-02T11:19:38;96080.83;;;17.23;34.25
47082;BME280;33066;49.296;14.470;2024-03-02T11:22:04;96079.42;;;17.01;34.02
47082;BME280;33066;49.296;14.470;2024-03-02T11:24:31;96070.87;;;16.76;34.56
47082;BME280;33066;49.296;14.470;2024-03-02T11:26:54;96070.24;;;16.69;34.92
47082;BME280;33066;49.296;14.470;2024-03-02T11:31:57;96065.82;;;16.50;35.35
47082;BME280;33066;49.296;14.470;2024-03-02T11:34:28;96069.95;;;16.17;35.29
47082;BME280;33066;49.296;14.470;2024-03-02T11:36:36;96071.45;;;16.43;35.57
47082;BME280;33066;49.296;14.470;2024-03-02T11:39:02;96072.02;;;16.15;35.64
47082;BME280;33066;49.296;14.470;2024-03-02T11:41:27;96069.83;;;15.77;36.14
47082;BME280;33066;49.296;14.470;2024-03-02T11:43:52;96069.38;;;16.08;36.41
47082;BME280;33066;49.296;14.470;2024-03-02T11:46:22;96066.54;;;15.54;36.34
47082;BME280;33066;49.296;14.470;2024-03-02T11:48:43;96066.38;;;15.64;36.38
47082;BME280;33066;49.296;14.470;2024-03-02T11:51:09;96066.57;;;15.63;36.62
47082;BME280;33066;49.296;14.470;2024-03-02T11:53:35;96068.57;;;15.39;36.92
47082;BME280;33066;49.296;14.470;2024-03-02T11:56:02;96067.97;;;15.34;37.10
47082;BME280;33066;49.296;14.470;2024-03-02T11:58:27;96067.55;;;15.45;36.99
47082;BME280;33066;49.296;14.470;2024-03-02T12:00:52;96063.70;;;15.64;36.79
47082;BME280;33066;49.296;14.470;2024-03-02T12:03:17;96061.52;;;15.45;36.90
47082;BME280;33066;49.296;14.470;2024-03-02T12:05:42;96065.81;;;15.00;37.25
47082;BME280;33066;49.296;14.470;2024-03-02T12:08:11;96061.64;;;14.98;37.50
47082;BME280;33066;49.296;14.470;2024-03-02T12:10:35;96052.11;;;15.16;37.10
47082;BME280;33066;49.296;14.470;2024-03-02T12:13:00;96049.63;;;15.82;36.59
47082;BME280;33066;49.296;14.470;2024-03-02T12:15:25;96046.70;;;16.47;35.47
47082;BME280;33066;49.296;14.470;2024-03-02T12:17:53;96043.00;;;17.47;34.72
47082;BME280;33066;49.296;14.470;2024-03-02T12:20:15;96040.23;;;17.70;33.33
47082;BME280;33066;49.296;14.470;2024-03-02T12:22:41;96038.53;;;17.63;33.23
47082;BME280;33066;49.296;14.470;2024-03-02T12:25:06;96036.20;;;17.45;33.78
47082;BME280;33066;49.296;14.470;2024-03-02T12:27:32;96031.02;;;17.19;33.97
47082;BME280;33066;49.296;14.470;2024-03-02T12:29:57;96025.48;;;17.12;34.14
47082;BME280;33066;49.296;14.470;2024-03-02T12:32:22;96027.06;;;17.60;34.06
47082;BME280;33066;49.296;14.470;2024-03-02T12:34:47;96026.18;;;17.45;34.16
47082;BME280;33066;49.296;14.470;2024-03-02T12:37:13;96025.32;;;17.01;34.09
47082;BME280;33066;49.296;14.470;2024-03-02T12:39:38;96024.25;;;17.03;34.42
47082;BME280;33066;49.296;14.470;2024-03-02T12:42:04;96022.99;;;16.40;34.85
47082;BME280;33066;49.296;14.470;2024-03-02T12:44:30;96016.71;;;16.66;35.00
47082;BME280;33066;49.296;14.470;2024-03-02T12:46:55;96016.93;;;16.40;35.25